Time;durP1;ratioP1;P1;durP2;ratioP2;P2;SDS_P1;SDS_P2;PMS_P1;PMS_P2;Temp;Humidity;BMP_temperature;BMP_pressure;BME280_temperature;BME280_humidity;BME280_pressure;Samples;Min_cycle;Max_cycle;Signal;HPM_P1;HPM_P2
2022/07/04 00:00:12;;;;;;;;;;;;;;;;;;1036087;28;4061;-53
2022/07/04 00:00:58;;;;;;;;;;;;;;;;;;1035436;28;4058;-49
2022/07/04 00:01:29;;;;;;;;;;;;;;;;;;1038463;28;1769;-48
2022/07/04 00:02:00;;;;;;;;;;;;;;;;;;1037028;28;4040;-48
2022/07/04 00:02:30;;;;;;;;;;;;;;;;;;1037154;28;3077;-47
2022/07/04 00:03:00;;;;;;;;;;;;;;;;;;1041079;28;4104;-48
2022/07/04 00:03:30;;;;;;;;;;;;;;;;;;1041146;28;2917;-46
2022/07/04 00:04:01;;;;;;;;;;;;;;;;;;1040029;28;4071;-48
2022/07/04 00:04:31;;;;;;;;;;;;;;;;;;1040599;28;3529;-52
2022/07/04 00:05:01;;;;;;;;;;;;;;;;;;1040267;28;3881;-50
2022/07/04 00:05:32;;;;;;;;;;;;;;;;;;1036921;28;4376;-53
2022/07/04 00:06:02;;;;;;;;;;;;;;;;;;1032418;28;3920;-50
2022/07/04 00:06:32;;;;;;;;;;;;;;;;;;1033890;28;2363;-48
2022/07/04 00:07:03;;;;;;;;;;;;;;;;;;1030545;28;4134;-49
2022/07/04 00:07:33;;;;;;;;;;;;;;;;;;1027551;28;3723;-51
2022/07/04 00:08:03;;;;;;;;;;;;;;;;;;1036843;28;4036;-46
2022/07/04 00:08:34;;;;;;;;;;;;;;;;;;1036346;28;4182;-47
2022/07/04 00:09:04;;;;;;;;;;;;;;;;;;1035743;28;3936;-47
2022/07/04 00:09:34;;;;;;;;;;;;;;;;;;1037034;28;2082;-49
2022/07/04 00:10:05;;;;;;;;;;;;;;;;;;1037117;28;4267;-49
2022/07/04 00:10:35;;;;;;;;;;;;;;;;;;1036813;28;2933;-48
2022/07/04 00:11:05;;;;;;;;;;;;;;;;;;1033114;28;3924;-49
2022/07/04 00:11:36;;;;;;;;;;;;;;;;;;1033452;28;2410;-48
2022/07/04 00:12:06;;;;;;;;;;;;;;;;;;1033047;28;3882;-49
2022/07/04 00:12:36;;;;;;;;;;;;;;;;;;1032787;28;1994;-48
2022/07/04 00:13:07;;;;;;;;;;;;;;;;;;1032438;28;3952;-51
2022/07/04 00:13:37;;;;;;;;;;;;;;;;;;1032371;28;2858;-49
2022/07/04 00:14:07;;;;;;;;;;;;;;;;;;1033351;28;3857;-48
2022/07/04 00:14:38;;;;;;;;;;;;;;;;;;1036360;28;3757;-51
2022/07/04 00:15:09;;;;;;;;;;;;;;;;;;1036883;28;4275;-52
2022/07/04 00:15:40;;;;;;;;;;;;;;;;;;1038206;28;1635;-48
2022/07/04 00:16:10;;;;;;;;;;;;;;;;;;1037139;28;3924;-48
2022/07/04 00:16:40;;;;;;;;;;;;;;;;;;1038643;28;1991;-53
2022/07/04 00:17:11;;;;;;;;;;;;;;;;;;1036861;28;4115;-49
2022/07/04 00:17:41;;;;;;;;;;;;;;;;;;1036252;28;4544;-49
2022/07/04 00:18:11;;;;;;;;;;;;;;;;;;1036050;28;5296;-50
2022/07/04 00:18:42;;;;;;;;;;;;;;;;;;1037675;28;1938;-51
2022/07/04 00:19:12;;;;;;;;;;;;;;;;;;1036664;28;3855;-49
2022/07/04 00:19:42;;;;;;;;;;;;;;;;;;1034573;28;1920;-49
2022/07/04 00:20:13;;;;;;;;;;;;;;;;;;1030920;28;4516;-48
2022/07/04 00:20:43;;;;;;;;;;;;;;;;;;1034183;28;4234;-51
2022/07/04 00:21:13;;;;;;;;;;;;;;;;;;1031408;28;4453;-51
2022/07/04 00:21:44;;;;;;;;;;;;;;;;;;1041749;28;2302;-50
2022/07/04 00:22:14;;;;;;;;;;;;;;;;;;1033665;28;3884;-45
2022/07/04 00:22:44;;;;;;;;;;;;;;;;;;1037852;28;2796;-51
2022/07/04 00:23:15;;;;;;;;;;;;;;;;;;1035115;28;4482;-49
2022/07/04 00:23:45;;;;;;;;;;;;;;;;;;1036415;28;3785;-47
2022/07/04 00:24:15;;;;;;;;;;;;;;;;;;1034942;28;3828;-49
2022/07/04 00:24:45;;;;;;;;;;;;;;;;;;1037169;28;3721;-49
2022/07/04 00:25:16;;;;;;;;;;;;;;;;;;1035437;28;3852;-51
2022/07/04 00:25:46;;;;;;;;;;;;;;;;;;1034699;28;4256;-51
2022/07/04 00:26:17;;;;;;;;;;;;;;;;;;1036323;28;3774;-48
2022/07/04 00:26:47;;;;;;;;;;;;;;;;;;1036072;28;4386;-47
2022/07/04 00:27:17;;;;;;;;;;;;;;;;;;1036692;28;2352;-46
2022/07/04 00:27:48;;;;;;;;;;;;;;;;;;1033043;28;3814;-48
2022/07/04 00:28:18;;;;;;;;;;;;;;;;;;1028461;28;2313;-45
2022/07/04 00:28:48;;;;;;;;;;;;;;;;;;1032096;28;3923;-48
2022/07/04 00:29:18;;;;;;;;;;;;;;;;;;1037969;28;4011;-47
2022/07/04 00:29:49;;;;;;;;;;;;;;;;;;1037340;28;3847;-48
2022/07/04 00:30:19;;;;;;;;;;;;;;;;;;1037603;28;2531;-48
2022/07/04 00:30:50;;;;;;;;;;;;;;;;;;1037521;28;3817;-49
2022/07/04 00:31:20;;;;;;;;;;;;;;;;;;1038969;28;1626;-48
2022/07/04 00:31:50;;;;;;;;;;;;;;;;;;1037053;28;3939;-47
2022/07/04 00:32:20;;;;;;;;;;;;;;;;;;1038062;28;2172;-45
2022/07/04 00:32:57;;;;;;;;;;;;;;;;;;1039247;28;4057;-48
2022/07/04 00:33:34;;;;;;;;;;;;;;;;;;1040460;28;1732;-48
2022/07/04 00:34:12;;;;;;;;;;;;;;;;;;1039440;28;3922;-51
2022/07/04 00:34:42;;;;;;;;;;;;;;;;;;1040383;28;1611;-47
2022/07/04 00:35:12;;;;;;;;;;;;;;;;;;1042257;28;4502;-47
2022/07/04 00:35:43;;;;;;;;;;;;;;;;;;1045239;28;3850;-50
2022/07/04 00:36:13;;;;;;;;;;;;;;;;;;1044058;28;4106;-47
2022/07/04 00:36:43;;;;;;;;;;;;;;;;;;1045482;28;1414;-50
2022/07/04 00:37:14;;;;;;;;;;;;;;;;;;1044310;28;5246;-50
2022/07/04 00:37:44;;;;;;;;;;;;;;;;;;1043758;28;4181;-49
2022/07/04 00:38:14;;;;;;;;;;;;;;;;;;1043175;28;3981;-47
2022/07/04 00:38:45;;;;;;;;;;;;;;;;;;1043992;28;2651;-48
2022/07/04 00:39:15;;;;;;;;;;;;;;;;;;1044227;28;3776;-49
2022/07/04 00:39:45;;;;;;;;;;;;;;;;;;1044743;28;1233;-47
2022/07/04 00:40:15;;;;;;;;;;;;;;;;;;1043673;28;4212;-49
2022/07/04 00:40:46;;;;;;;;;;;;;;;;;;1044751;28;1771;-48
2022/07/04 00:41:16;;;;;;;;;;;;;;;;;;1045087;28;3938;-51
2022/07/04 00:41:47;;;;;;;;;;;;;;;;;;1041486;28;1663;-47
2022/07/04 00:42:17;;;;;;;;;;;;;;;;;;1040727;28;3807;-51
2022/07/04 00:42:47;;;;;;;;;;;;;;;;;;1039325;28;4720;-47
2022/07/04 00:43:22;;;;;;;;;;;;;;;;;;1039788;28;3053;-49
2022/07/04 00:44:00;;;;;;;;;;;;;;;;;;1043556;28;4215;-50
2022/07/04 00:44:30;;;;;;;;;;;;;;;;;;1041756;28;1666;-48
2022/07/04 00:45:00;;;;;;;;;;;;;;;;;;1040682;28;4048;-50
2022/07/04 00:45:30;;;;;;;;;;;;;;;;;;1040328;28;4344;-51
2022/07/04 00:46:03;;;;;;;;;;;;;;;;;;1040405;28;4053;-46
2022/07/04 00:46:34;;;;;;;;;;;;;;;;;;1043888;28;2603;-52
2022/07/04 00:47:04;;;;;;;;;;;;;;;;;;1044284;28;4250;-49
2022/07/04 00:47:35;;;;;;;;;;;;;;;;;;1044574;28;2607;-46
2022/07/04 00:48:05;;;;;;;;;;;;;;;;;;1044152;28;4406;-49
2022/07/04 00:48:35;;;;;;;;;;;;;;;;;;1046146;28;2843;-53
2022/07/04 00:49:06;;;;;;;;;;;;;;;;;;1044704;28;4201;-47
2022/07/04 00:49:37;;;;;;;;;;;;;;;;;;1045584;28;1719;-51
2022/07/04 00:50:07;;;;;;;;;;;;;;;;;;1045201;28;3943;-45
2022/07/04 00:50:46;;;;;;;;;;;;;;;;;;1045383;28;3665;-50
2022/07/04 00:51:17;;;;;;;;;;;;;;;;;;1046468;28;3854;-49
2022/07/04 00:51:47;;;;;;;;;;;;;;;;;;1044205;28;4136;-48
2022/07/04 00:52:24;;;;;;;;;;;;;;;;;;1045910;28;4222;-49
2022/07/04 00:53:00;;;;;;;;;;;;;;;;;;1045126;28;4323;-48
2022/07/04 00:53:31;;;;;;;;;;;;;;;;;;1044162;28;3878;-50
2022/07/04 00:54:01;;;;;;;;;;;;;;;;;;1044544;28;3804;-47
2022/07/04 00:54:31;;;;;;;;;;;;;;;;;;1045997;28;2520;-47
2022/07/04 00:55:02;;;;;;;;;;;;;;;;;;1043651;28;4080;-48
2022/07/04 00:55:33;;;;;;;;;;;;;;;;;;1044786;28;2689;-50
2022/07/04 00:56:04;;;;;;;;;;;;;;;;;;1040098;28;3993;-49
2022/07/04 00:56:38;;;;;;;;;;;;;;;;;;1039413;28;1628;-48
2022/07/04 00:57:08;;;;;;;;;;;;;;;;;;1038645;28;3987;-48
2022/07/04 00:57:38;;;;;;;;;;;;;;;;;;1040740;28;4024;-50
2022/07/04 00:58:09;;;;;;;;;;;;;;;;;;1044416;28;3890;-48
2022/07/04 00:58:39;;;;;;;;;;;;;;;;;;1046179;28;3192;-48
2022/07/04 00:59:10;;;;;;;;;;;;;;;;;;1042759;28;4024;-49
2022/07/04 00:59:40;;;;;;;;;;;;;;;;;;1046211;28;3981;-47
2022/07/04 01:00:11;;;;;;;;;;;;;;;;;;1043353;28;4309;-55
2022/07/04 01:00:42;;;;;;;;;;;;;;;;;;1044745;28;3239;-52
2022/07/04 01:01:12;;;;;;;;;;;;;;;;;;1041285;28;3852;-47
2022/07/04 01:01:42;;;;;;;;;;;;;;;;;;1042423;28;1652;-50
2022/07/04 01:02:12;;;;;;;;;;;;;;;;;;1039808;28;3915;-48
2022/07/04 01:02:43;;;;;;;;;;;;;;;;;;1042453;28;1349;-48
2022/07/04 01:03:13;;;;;;;;;;;;;;;;;;1043717;28;3969;-48
2022/07/04 01:03:43;;;;;;;;;;;;;;;;;;1045350;28;3052;-50
2022/07/04 01:04:14;;;;;;;;;;;;;;;;;;1044055;28;3949;-48
2022/07/04 01:04:44;;;;;;;;;;;;;;;;;;1045692;28;1674;-47
2022/07/04 01:05:15;;;;;;;;;;;;;;;;;;1038986;28;3969;-50
2022/07/04 01:05:45;;;;;;;;;;;;;;;;;;1042152;28;1308;-51
2022/07/04 01:06:16;;;;;;;;;;;;;;;;;;1041095;28;3746;-53
2022/07/04 01:06:46;;;;;;;;;;;;;;;;;;1040825;28;3802;-50
2022/07/04 01:07:17;;;;;;;;;;;;;;;;;;1040999;28;4480;-50
2022/07/04 01:07:47;;;;;;;;;;;;;;;;;;1041520;28;5415;-48
2022/07/04 01:08:17;;;;;;;;;;;;;;;;;;1040664;28;3586;-51
2022/07/04 01:08:48;;;;;;;;;;;;;;;;;;1035412;28;3941;-47
2022/07/04 01:09:18;;;;;;;;;;;;;;;;;;1042004;28;1675;-49
2022/07/04 01:09:48;;;;;;;;;;;;;;;;;;1041626;28;3919;-47
2022/07/04 01:10:19;;;;;;;;;;;;;;;;;;1041989;28;1581;-47
2022/07/04 01:10:49;;;;;;;;;;;;;;;;;;1045069;28;4301;-50
2022/07/04 01:11:19;;;;;;;;;;;;;;;;;;1045424;28;1576;-48
2022/07/04 01:11:50;;;;;;;;;;;;;;;;;;1041834;28;4512;-47
2022/07/04 01:12:24;;;;;;;;;;;;;;;;;;1044536;28;2054;-47
2022/07/04 01:12:54;;;;;;;;;;;;;;;;;;1042617;28;4698;-48
2022/07/04 01:13:25;;;;;;;;;;;;;;;;;;1044764;28;2566;-47
2022/07/04 01:13:55;;;;;;;;;;;;;;;;;;1044967;28;3853;-49
2022/07/04 01:14:26;;;;;;;;;;;;;;;;;;1044868;28;1923;-47
2022/07/04 01:14:56;;;;;;;;;;;;;;;;;;1045772;28;3969;-50
2022/07/04 01:15:26;;;;;;;;;;;;;;;;;;1044014;28;3123;-46
2022/07/04 01:15:56;;;;;;;;;;;;;;;;;;1045010;28;4459;-52
2022/07/04 01:16:27;;;;;;;;;;;;;;;;;;1039670;28;3638;-50
2022/07/04 01:16:57;;;;;;;;;;;;;;;;;;1040629;28;4052;-50
2022/07/04 01:17:28;;;;;;;;;;;;;;;;;;1038616;28;2966;-46
2022/07/04 01:17:58;;;;;;;;;;;;;;;;;;1039342;28;3978;-50
2022/07/04 01:18:28;;;;;;;;;;;;;;;;;;1043097;28;3731;-47
2022/07/04 01:18:58;;;;;;;;;;;;;;;;;;1042898;28;4446;-51
2022/07/04 01:19:29;;;;;;;;;;;;;;;;;;1044934;28;3986;-48
2022/07/04 01:19:59;;;;;;;;;;;;;;;;;;1039856;28;3964;-51
2022/07/04 01:20:32;;;;;;;;;;;;;;;;;;1038566;28;3841;-52
2022/07/04 01:21:03;;;;;;;;;;;;;;;;;;1039946;28;4023;-50
2022/07/04 01:21:33;;;;;;;;;;;;;;;;;;1038098;28;3998;-51
2022/07/04 01:22:05;;;;;;;;;;;;;;;;;;1044908;28;3953;-51
2022/07/04 01:22:36;;;;;;;;;;;;;;;;;;1044849;28;1655;-48
2022/07/04 01:23:06;;;;;;;;;;;;;;;;;;1044878;28;4172;-49
2022/07/04 01:23:40;;;;;;;;;;;;;;;;;;1044073;28;3404;-48
2022/07/04 01:24:11;;;;;;;;;;;;;;;;;;1045853;28;3922;-49
2022/07/04 01:24:48;;;;;;;;;;;;;;;;;;1040219;28;3984;-47
2022/07/04 01:25:18;;;;;;;;;;;;;;;;;;1040151;28;1666;-50
2022/07/04 01:25:50;;;;;;;;;;;;;;;;;;1038873;28;4192;-48
2022/07/04 01:26:21;;;;;;;;;;;;;;;;;;1039660;28;3284;-46
2022/07/04 01:26:51;;;;;;;;;;;;;;;;;;1044241;28;4065;-48
2022/07/04 01:27:21;;;;;;;;;;;;;;;;;;1043613;28;4764;-49
2022/07/04 01:27:52;;;;;;;;;;;;;;;;;;1045343;28;4061;-48
2022/07/04 01:28:22;;;;;;;;;;;;;;;;;;1044222;28;2842;-51
2022/07/04 01:28:53;;;;;;;;;;;;;;;;;;1045660;28;3862;-48
2022/07/04 01:29:23;;;;;;;;;;;;;;;;;;1045063;28;1841;-51
2022/07/04 01:29:53;;;;;;;;;;;;;;;;;;1045178;28;4403;-48
2022/07/04 01:30:24;;;;;;;;;;;;;;;;;;1044176;28;2897;-49
2022/07/04 01:30:54;;;;;;;;;;;;;;;;;;1045476;28;3975;-49
2022/07/04 01:31:24;;;;;;;;;;;;;;;;;;1044630;28;2989;-50
2022/07/04 01:31:55;;;;;;;;;;;;;;;;;;1045531;28;3893;-47
2022/07/04 01:32:25;;;;;;;;;;;;;;;;;;1045718;28;4500;-48
2022/07/04 01:33:08;;;;;;;;;;;;;;;;;;1040155;28;3962;-50
2022/07/04 01:33:45;;;;;;;;;;;;;;;;;;1035738;28;2572;-46
2022/07/04 01:34:16;;;;;;;;;;;;;;;;;;1031805;28;4175;-47
2022/07/04 01:34:46;;;;;;;;;;;;;;;;;;1035983;28;1266;-48
2022/07/04 01:35:17;;;;;;;;;;;;;;;;;;1028855;28;3838;-52
2022/07/04 01:35:47;;;;;;;;;;;;;;;;;;1023456;28;4734;-48
2022/07/04 01:36:17;;;;;;;;;;;;;;;;;;1029619;28;1493;-46
2022/07/04 01:36:48;;;;;;;;;;;;;;;;;;1025165;28;3972;-49
2022/07/04 01:37:18;;;;;;;;;;;;;;;;;;1033156;28;4277;-49
2022/07/04 01:37:49;;;;;;;;;;;;;;;;;;1029183;28;3947;-49
2022/07/04 01:38:19;;;;;;;;;;;;;;;;;;1029650;28;1573;-48
2022/07/04 01:38:50;;;;;;;;;;;;;;;;;;1031547;28;3959;-49
2022/07/04 01:39:20;;;;;;;;;;;;;;;;;;1032675;28;3957;-48
2022/07/04 01:39:50;;;;;;;;;;;;;;;;;;1036422;28;3854;-48
2022/07/04 01:40:20;;;;;;;;;;;;;;;;;;1038907;28;1636;-48
2022/07/04 01:40:51;;;;;;;;;;;;;;;;;;1038000;28;4074;-50
2022/07/04 01:41:21;;;;;;;;;;;;;;;;;;1037679;28;1686;-47
2022/07/04 01:41:51;;;;;;;;;;;;;;;;;;1035952;28;4080;-51
2022/07/04 01:42:21;;;;;;;;;;;;;;;;;;1037497;28;1667;-51
2022/07/04 01:42:52;;;;;;;;;;;;;;;;;;1037865;28;3836;-47
2022/07/04 01:43:22;;;;;;;;;;;;;;;;;;1036499;28;2324;-49
2022/07/04 01:43:52;;;;;;;;;;;;;;;;;;1036614;28;3835;-49
2022/07/04 01:44:23;;;;;;;;;;;;;;;;;;1037212;28;1607;-50
2022/07/04 01:44:53;;;;;;;;;;;;;;;;;;1041268;28;4063;-46
2022/07/04 01:45:24;;;;;;;;;;;;;;;;;;1040318;28;2920;-48
2022/07/04 01:45:54;;;;;;;;;;;;;;;;;;1040643;28;3906;-48
2022/07/04 01:46:24;;;;;;;;;;;;;;;;;;1036256;28;2804;-49
2022/07/04 01:46:55;;;;;;;;;;;;;;;;;;1036909;28;4056;-49
2022/07/04 01:47:26;;;;;;;;;;;;;;;;;;1035837;28;2761;-49
2022/07/04 01:47:56;;;;;;;;;;;;;;;;;;1036455;28;3904;-51
2022/07/04 01:48:27;;;;;;;;;;;;;;;;;;1035987;28;3450;-49
2022/07/04 01:48:57;;;;;;;;;;;;;;;;;;1038179;28;4362;-50
2022/07/04 01:49:28;;;;;;;;;;;;;;;;;;1038156;28;1380;-49
2022/07/04 01:49:58;;;;;;;;;;;;;;;;;;1035242;28;4164;-49
2022/07/04 01:50:28;;;;;;;;;;;;;;;;;;1036348;28;3989;-50
2022/07/04 01:51:05;;;;;;;;;;;;;;;;;;1036736;28;3954;-47
2022/07/04 01:51:42;;;;;;;;;;;;;;;;;;1038160;28;1501;-47
2022/07/04 01:52:15;;;;;;;;;;;;;;;;;;1040829;28;4105;-45
2022/07/04 01:52:46;;;;;;;;;;;;;;;;;;1040821;28;3704;-50
2022/07/04 01:53:17;;;;;;;;;;;;;;;;;;1038084;28;3892;-49
2022/07/04 01:53:47;;;;;;;;;;;;;;;;;;1039913;28;3803;-50
2022/07/04 01:54:17;;;;;;;;;;;;;;;;;;1036224;28;3605;-50
2022/07/04 01:54:47;;;;;;;;;;;;;;;;;;1040788;28;3817;-50
2022/07/04 01:55:18;;;;;;;;;;;;;;;;;;1038443;28;1626;-48
2022/07/04 01:55:48;;;;;;;;;;;;;;;;;;1036205;28;3920;-46
2022/07/04 01:56:18;;;;;;;;;;;;;;;;;;1038801;28;1627;-52
2022/07/04 01:56:49;;;;;;;;;;;;;;;;;;1036652;28;3984;-49
2022/07/04 01:57:19;;;;;;;;;;;;;;;;;;1037020;28;4209;-47
2022/07/04 01:57:49;;;;;;;;;;;;;;;;;;1036873;28;4096;-46
2022/07/04 01:58:19;;;;;;;;;;;;;;;;;;1036575;28;4183;-48
2022/07/04 01:58:50;;;;;;;;;;;;;;;;;;1036348;28;4468;-47
2022/07/04 02:01:29;;;;;;;;;;;;;;;;;;1037171;28;3829;-47
2022/07/04 02:01:49;;;;;;;;;;;;;;;;;;1039286;28;3915;-46
2022/07/04 02:02:19;;;;;;;;;;;;;;;;;;1037167;28;3853;-51
2022/07/04 02:02:50;;;;;;;;;;;;;;;;;;1036876;28;3936;-48
2022/07/04 02:03:20;;;;;;;;;;;;;;;;;;1037088;28;2486;-50
2022/07/04 02:03:50;;;;;;;;;;;;;;;;;;1037731;28;3896;-48
2022/07/04 02:04:21;;;;;;;;;;;;;;;;;;1036525;28;2941;-53
2022/07/04 02:04:51;;;;;;;;;;;;;;;;;;1037697;28;4077;-46
2022/07/04 02:05:24;;;;;;;;;;;;;;;;;;1036501;28;3249;-48
2022/07/04 02:05:54;;;;;;;;;;;;;;;;;;1036858;28;4211;-47
2022/07/04 02:06:25;;;;;;;;;;;;;;;;;;1037059;28;1792;-47
2022/07/04 02:06:55;;;;;;;;;;;;;;;;;;1037237;28;3937;-47
2022/07/04 02:07:25;;;;;;;;;;;;;;;;;;1036001;28;4233;-45
2022/07/04 02:07:55;;;;;;;;;;;;;;;;;;1037899;28;4037;-49
2022/07/04 02:09:14;;;;;;;;;;;;;;;;;;1036482;28;2392;-48
2022/07/04 02:09:16;;;;;;;;;;;;;;;;;;1032732;28;3907;-46
2022/07/04 02:09:46;;;;;;;;;;;;;;;;;;1034352;28;1441;-49
2022/07/04 02:10:17;;;;;;;;;;;;;;;;;;1031490;28;5541;-48
2022/07/04 02:10:47;;;;;;;;;;;;;;;;;;1031995;28;3992;-51
2022/07/04 02:11:18;;;;;;;;;;;;;;;;;;1037367;28;2906;-48
2022/07/04 02:13:03;;;;;;;;;;;;;;;;;;1035528;28;3805;-45
2022/07/04 02:13:34;;;;;;;;;;;;;;;;;;1036746;28;2492;-48
2022/07/04 02:14:04;;;;;;;;;;;;;;;;;;1037143;28;4144;-48
2022/07/04 02:14:34;;;;;;;;;;;;;;;;;;1036753;28;4391;-48
2022/07/04 02:15:05;;;;;;;;;;;;;;;;;;1036705;28;3801;-51
2022/07/04 02:15:36;;;;;;;;;;;;;;;;;;1037452;28;1683;-47
2022/07/04 02:16:06;;;;;;;;;;;;;;;;;;1037579;28;4177;-48
2022/07/04 02:16:38;;;;;;;;;;;;;;;;;;1036069;28;3305;-48
2022/07/04 02:17:08;;;;;;;;;;;;;;;;;;1032312;28;4382;-50
2022/07/04 02:17:38;;;;;;;;;;;;;;;;;;1033087;28;1595;-48
2022/07/04 02:18:09;;;;;;;;;;;;;;;;;;1033274;28;3842;-52
2022/07/04 02:18:40;;;;;;;;;;;;;;;;;;1037292;28;3083;-50
2022/07/04 02:19:10;;;;;;;;;;;;;;;;;;1041279;28;4221;-45
2022/07/04 02:19:40;;;;;;;;;;;;;;;;;;1038148;28;1702;-49
2022/07/04 02:20:11;;;;;;;;;;;;;;;;;;1036950;28;3918;-46
2022/07/04 02:20:41;;;;;;;;;;;;;;;;;;1034265;28;3733;-51
2022/07/04 02:21:12;;;;;;;;;;;;;;;;;;1034665;28;5996;-50
2022/07/04 02:21:43;;;;;;;;;;;;;;;;;;1040143;28;3934;-50
2022/07/04 02:22:14;;;;;;;;;;;;;;;;;;1038277;28;4446;-48
2022/07/04 02:22:44;;;;;;;;;;;;;;;;;;1035225;28;3980;-47
2022/07/04 02:23:14;;;;;;;;;;;;;;;;;;1035290;28;4195;-49
2022/07/04 02:23:45;;;;;;;;;;;;;;;;;;1036629;28;2897;-46
2022/07/04 02:24:15;;;;;;;;;;;;;;;;;;1037299;28;4142;-47
2022/07/04 02:24:45;;;;;;;;;;;;;;;;;;1041796;28;1757;-50
2022/07/04 02:25:16;;;;;;;;;;;;;;;;;;1040962;28;3894;-45
2022/07/04 02:25:46;;;;;;;;;;;;;;;;;;1042017;28;1582;-50
2022/07/04 02:26:16;;;;;;;;;;;;;;;;;;1040124;28;3954;-46
2022/07/04 02:26:47;;;;;;;;;;;;;;;;;;1036290;28;4641;-48
2022/07/04 02:27:18;;;;;;;;;;;;;;;;;;1041192;28;1780;-48
2022/07/04 02:27:48;;;;;;;;;;;;;;;;;;1038241;28;4237;-50
2022/07/04 02:28:18;;;;;;;;;;;;;;;;;;1037118;28;2612;-47
2022/07/04 02:28:48;;;;;;;;;;;;;;;;;;1036742;28;4032;-48
2022/07/04 02:29:19;;;;;;;;;;;;;;;;;;1036728;28;3374;-50
2022/07/04 02:29:49;;;;;;;;;;;;;;;;;;1037402;28;4287;-47
2022/07/04 02:30:19;;;;;;;;;;;;;;;;;;1036161;28;3344;-48
2022/07/04 02:30:50;;;;;;;;;;;;;;;;;;1037665;28;4472;-51
2022/07/04 02:31:20;;;;;;;;;;;;;;;;;;1038492;28;1679;-49
2022/07/04 02:31:50;;;;;;;;;;;;;;;;;;1037229;28;3895;-45
2022/07/04 02:32:20;;;;;;;;;;;;;;;;;;1038681;28;1672;-48
2022/07/04 02:32:51;;;;;;;;;;;;;;;;;;1037198;28;4256;-45
2022/07/04 02:33:34;;;;;;;;;;;;;;;;;;1040498;28;2899;-46
2022/07/04 02:34:12;;;;;;;;;;;;;;;;;;1041742;28;3919;-48
2022/07/04 02:34:42;;;;;;;;;;;;;;;;;;1042097;28;1680;-45
2022/07/04 02:35:12;;;;;;;;;;;;;;;;;;1043068;28;4245;-45
2022/07/04 02:35:43;;;;;;;;;;;;;;;;;;1044201;28;1650;-46
2022/07/04 02:36:13;;;;;;;;;;;;;;;;;;1043036;28;3908;-48
2022/07/04 02:36:43;;;;;;;;;;;;;;;;;;1040653;28;3735;-51
2022/07/04 02:37:14;;;;;;;;;;;;;;;;;;1041514;28;4245;-49
2022/07/04 02:37:44;;;;;;;;;;;;;;;;;;1041415;28;1594;-48
2022/07/04 02:38:14;;;;;;;;;;;;;;;;;;1041009;28;3976;-49
2022/07/04 02:38:45;;;;;;;;;;;;;;;;;;1039473;28;3801;-46
2022/07/04 02:39:15;;;;;;;;;;;;;;;;;;1040737;28;4039;-48
2022/07/04 02:39:45;;;;;;;;;;;;;;;;;;1040864;28;2246;-52
2022/07/04 02:40:16;;;;;;;;;;;;;;;;;;1041539;28;4109;-50
2022/07/04 02:40:47;;;;;;;;;;;;;;;;;;1039667;28;3747;-49
2022/07/04 02:41:17;;;;;;;;;;;;;;;;;;1040332;28;3885;-51
2022/07/04 02:41:48;;;;;;;;;;;;;;;;;;1039812;28;4284;-45
2022/07/04 02:42:19;;;;;;;;;;;;;;;;;;1040740;28;1677;-47
2022/07/04 02:42:49;;;;;;;;;;;;;;;;;;1040459;28;3956;-48
2022/07/04 02:43:19;;;;;;;;;;;;;;;;;;1040965;28;1973;-47
2022/07/04 02:43:49;;;;;;;;;;;;;;;;;;1044186;28;4338;-49
2022/07/04 02:44:20;;;;;;;;;;;;;;;;;;1046098;28;1711;-46
2022/07/04 02:44:50;;;;;;;;;;;;;;;;;;1040141;28;3994;-48
2022/07/04 02:45:20;;;;;;;;;;;;;;;;;;1041023;28;3129;-47
2022/07/04 02:45:50;;;;;;;;;;;;;;;;;;1041254;28;3905;-46
2022/07/04 02:46:21;;;;;;;;;;;;;;;;;;1040807;28;3429;-45
2022/07/04 02:46:51;;;;;;;;;;;;;;;;;;1040430;28;4662;-51
2022/07/04 02:47:21;;;;;;;;;;;;;;;;;;1042560;28;1530;-48
2022/07/04 02:47:51;;;;;;;;;;;;;;;;;;1041648;28;3885;-49
2022/07/04 02:48:22;;;;;;;;;;;;;;;;;;1040084;28;5226;-46
2022/07/04 02:48:52;;;;;;;;;;;;;;;;;;1041420;28;3886;-49
2022/07/04 02:49:23;;;;;;;;;;;;;;;;;;1047142;28;1762;-46
2022/07/04 02:49:53;;;;;;;;;;;;;;;;;;1042658;28;4122;-47
2022/07/04 02:50:23;;;;;;;;;;;;;;;;;;1040217;28;3703;-51
2022/07/04 02:50:54;;;;;;;;;;;;;;;;;;1042390;28;4287;-48
2022/07/04 02:51:31;;;;;;;;;;;;;;;;;;1042358;28;3684;-48
2022/07/04 02:52:01;;;;;;;;;;;;;;;;;;1041376;28;3791;-46
2022/07/04 02:52:31;;;;;;;;;;;;;;;;;;1041823;28;1647;-46
2022/07/04 02:53:01;;;;;;;;;;;;;;;;;;1041277;28;3908;-51
2022/07/04 02:53:32;;;;;;;;;;;;;;;;;;1040328;28;4329;-44
2022/07/04 02:54:02;;;;;;;;;;;;;;;;;;1039620;28;4085;-51
2022/07/04 02:54:32;;;;;;;;;;;;;;;;;;1040080;28;4116;-46
2022/07/04 02:55:03;;;;;;;;;;;;;;;;;;1041338;28;3955;-48
2022/07/04 02:55:33;;;;;;;;;;;;;;;;;;1041639;28;4553;-47
2022/07/04 02:56:04;;;;;;;;;;;;;;;;;;1040388;28;3824;-48
2022/07/04 02:56:35;;;;;;;;;;;;;;;;;;1038791;28;3299;-49
2022/07/04 02:57:05;;;;;;;;;;;;;;;;;;1039617;28;4282;-45
2022/07/04 02:57:37;;;;;;;;;;;;;;;;;;1041530;28;1694;-46
2022/07/04 02:58:07;;;;;;;;;;;;;;;;;;1040432;28;3900;-50
2022/07/04 02:58:37;;;;;;;;;;;;;;;;;;1042205;28;2855;-49
2022/07/04 02:59:08;;;;;;;;;;;;;;;;;;1041488;28;3926;-50
2022/07/04 02:59:38;;;;;;;;;;;;;;;;;;1041138;28;3751;-47
2022/07/04 03:00:09;;;;;;;;;;;;;;;;;;1040122;28;3891;-48
2022/07/04 03:00:39;;;;;;;;;;;;;;;;;;1042168;28;2713;-48
2022/07/04 03:01:10;;;;;;;;;;;;;;;;;;1041018;28;4264;-47
2022/07/04 03:01:40;;;;;;;;;;;;;;;;;;1040563;28;2886;-51
2022/07/04 03:02:10;;;;;;;;;;;;;;;;;;1040056;28;3963;-47
2022/07/04 03:02:41;;;;;;;;;;;;;;;;;;1041781;28;1700;-54
2022/07/04 03:03:11;;;;;;;;;;;;;;;;;;1040104;28;4050;-44
2022/07/04 03:03:42;;;;;;;;;;;;;;;;;;1042572;28;2352;-45
2022/07/04 03:04:12;;;;;;;;;;;;;;;;;;1040590;28;3823;-45
2022/07/04 03:04:42;;;;;;;;;;;;;;;;;;1042101;28;1574;-48
2022/07/04 03:05:13;;;;;;;;;;;;;;;;;;1041133;28;4543;-49
2022/07/04 03:05:43;;;;;;;;;;;;;;;;;;1042086;28;1598;-47
2022/07/04 03:06:13;;;;;;;;;;;;;;;;;;1039879;28;4151;-48
2022/07/04 03:06:43;;;;;;;;;;;;;;;;;;1038885;28;2194;-46
2022/07/04 03:07:14;;;;;;;;;;;;;;;;;;1040937;28;4670;-47
2022/07/04 03:07:44;;;;;;;;;;;;;;;;;;1042980;28;1592;-46
2022/07/04 03:08:14;;;;;;;;;;;;;;;;;;1038983;28;4554;-48
2022/07/04 03:08:45;;;;;;;;;;;;;;;;;;1041999;28;3100;-48
2022/07/04 03:09:15;;;;;;;;;;;;;;;;;;1041142;28;4170;-45
2022/07/04 03:09:45;;;;;;;;;;;;;;;;;;1041226;28;1565;-46
2022/07/04 03:10:15;;;;;;;;;;;;;;;;;;1040893;28;4005;-46
2022/07/04 03:10:46;;;;;;;;;;;;;;;;;;1042103;28;1681;-46
2022/07/04 03:11:16;;;;;;;;;;;;;;;;;;1035934;28;3920;-49
2022/07/04 03:11:46;;;;;;;;;;;;;;;;;;1041673;28;3914;-47
2022/07/04 03:12:17;;;;;;;;;;;;;;;;;;1040826;28;3911;-49
2022/07/04 03:12:47;;;;;;;;;;;;;;;;;;1040851;28;4479;-47
2022/07/04 03:13:18;;;;;;;;;;;;;;;;;;1041037;28;2300;-48
2022/07/04 03:13:48;;;;;;;;;;;;;;;;;;1040265;28;4005;-47
2022/07/04 03:14:18;;;;;;;;;;;;;;;;;;1046381;28;1709;-51
2022/07/04 03:14:49;;;;;;;;;;;;;;;;;;1044328;28;4183;-51
2022/07/04 03:15:19;;;;;;;;;;;;;;;;;;1045392;28;3878;-45
2022/07/04 03:15:49;;;;;;;;;;;;;;;;;;1045976;28;4414;-48
2022/07/04 03:16:20;;;;;;;;;;;;;;;;;;1041266;28;3266;-50
2022/07/04 03:16:50;;;;;;;;;;;;;;;;;;1040621;28;3961;-44
2022/07/04 03:17:20;;;;;;;;;;;;;;;;;;1041898;28;1605;-49
2022/07/04 03:17:51;;;;;;;;;;;;;;;;;;1040724;28;4472;-51
2022/07/04 03:18:21;;;;;;;;;;;;;;;;;;1040600;28;2467;-50
2022/07/04 03:18:51;;;;;;;;;;;;;;;;;;1041165;28;4085;-46
2022/07/04 03:19:21;;;;;;;;;;;;;;;;;;1041978;28;1672;-46
2022/07/04 03:19:52;;;;;;;;;;;;;;;;;;1041273;28;4133;-46
2022/07/04 03:20:22;;;;;;;;;;;;;;;;;;1041883;28;3735;-46
2022/07/04 03:20:52;;;;;;;;;;;;;;;;;;1041302;28;3818;-49
2022/07/04 03:21:23;;;;;;;;;;;;;;;;;;1042100;28;2344;-51
2022/07/04 03:21:53;;;;;;;;;;;;;;;;;;1041903;28;4002;-46
2022/07/04 03:22:23;;;;;;;;;;;;;;;;;;1041879;28;3506;-47
2022/07/04 03:22:54;;;;;;;;;;;;;;;;;;1041522;28;3911;-47
2022/07/04 03:23:24;;;;;;;;;;;;;;;;;;1039948;28;3757;-49
2022/07/04 03:23:57;;;;;;;;;;;;;;;;;;1040347;28;4128;-46
2022/07/04 03:24:28;;;;;;;;;;;;;;;;;;1041625;28;2875;-47
2022/07/04 03:24:58;;;;;;;;;;;;;;;;;;1041224;28;3820;-50
2022/07/04 03:25:29;;;;;;;;;;;;;;;;;;1041250;28;1685;-48
2022/07/04 03:26:00;;;;;;;;;;;;;;;;;;1040318;28;4126;-47
2022/07/04 03:26:31;;;;;;;;;;;;;;;;;;1039156;28;3648;-48
2022/07/04 03:27:01;;;;;;;;;;;;;;;;;;1040338;28;4180;-46
2022/07/04 03:27:31;;;;;;;;;;;;;;;;;;1041685;28;3822;-47
2022/07/04 03:28:02;;;;;;;;;;;;;;;;;;1038013;28;4081;-46
2022/07/04 03:28:32;;;;;;;;;;;;;;;;;;1041678;28;2337;-47
2022/07/04 03:29:02;;;;;;;;;;;;;;;;;;1039764;28;4346;-47
2022/07/04 03:29:33;;;;;;;;;;;;;;;;;;1040502;28;3890;-44
2022/07/04 03:30:03;;;;;;;;;;;;;;;;;;1039970;28;4089;-48
2022/07/04 03:30:33;;;;;;;;;;;;;;;;;;1041591;28;1915;-49
2022/07/04 03:31:04;;;;;;;;;;;;;;;;;;1041711;28;4079;-48
2022/07/04 03:31:34;;;;;;;;;;;;;;;;;;1041830;28;1632;-52
2022/07/04 03:32:05;;;;;;;;;;;;;;;;;;1041112;28;4239;-47
2022/07/04 03:32:35;;;;;;;;;;;;;;;;;;1042047;28;1408;-48
2022/07/04 03:33:18;;;;;;;;;;;;;;;;;;1040363;28;4033;-47
2022/07/04 03:33:55;;;;;;;;;;;;;;;;;;1037340;28;3883;-46
2022/07/04 03:34:26;;;;;;;;;;;;;;;;;;1035879;28;3742;-44
2022/07/04 03:34:56;;;;;;;;;;;;;;;;;;1036403;28;4393;-47
2022/07/04 03:35:26;;;;;;;;;;;;;;;;;;1036253;28;2956;-49
2022/07/04 03:35:57;;;;;;;;;;;;;;;;;;1037854;28;4248;-47
2022/07/04 03:36:27;;;;;;;;;;;;;;;;;;1040015;28;3943;-47
2022/07/04 03:36:57;;;;;;;;;;;;;;;;;;1041840;28;3874;-47
2022/07/04 03:37:27;;;;;;;;;;;;;;;;;;1042325;28;1572;-47